createdAt,value
2017-12-22T00:00:41.073Z,95.50
2017-12-22T00:03:24.245Z,95.60
2017-12-22T00:06:02.765Z,95.60
2017-12-22T00:08:48.510Z,95.60
2017-12-22T00:11:23.076Z,95.70
2017-12-22T00:14:04.912Z,95.70
2017-12-22T00:16:49.300Z,95.80
2017-12-22T00:19:28.264Z,95.80
2017-12-22T00:25:02.924Z,95.80
2017-12-22T00:27:48.111Z,95.80
2017-12-22T00:30:27.672Z,95.80
2017-12-22T00:33:07.540Z,95.80
2017-12-22T00:35:48.941Z,95.70
2017-12-22T00:38:31.694Z,95.60
2017-12-22T00:43:44.645Z,95.50
2017-12-22T00:46:22.895Z,95.60
2017-12-22T00:49:00.284Z,95.50
2017-12-22T00:51:37.803Z,95.50
2017-12-22T00:54:15.428Z,95.40
2017-12-22T00:56:49.144Z,95.30
2017-12-22T00:59:24.838Z,95.40
2017-12-22T01:02:01.548Z,95.30
2017-12-22T01:04:43.933Z,95.40
2017-12-22T01:07:18.956Z,95.30
2017-12-22T01:25:12.370Z,95.00
2017-12-22T01:27:48.139Z,94.80
2017-12-22T01:33:24.097Z,94.90
2017-12-22T01:41:41.896Z,94.90
2017-12-22T01:44:26.152Z,94.90
2017-12-22T02:10:54.298Z,95.50
2017-12-22T02:13:31.466Z,95.40
2017-12-22T02:16:08.665Z,95.40
2017-12-22T02:18:44.800Z,95.40
2017-12-22T02:21:21.822Z,95.40
2017-12-22T02:26:40.884Z,95.30
2017-12-22T02:29:20.117Z,95.20
2017-12-22T02:34:35.676Z,95.10
2017-12-22T02:37:25.220Z,95.10
2017-12-22T02:57:39.876Z,95.00
2017-12-22T03:00:18.556Z,95.20
2017-12-22T03:02:58.030Z,95.20
2017-12-22T03:05:38.671Z,95.20
2017-12-22T03:08:14.783Z,95.20
2017-12-22T03:10:54.528Z,95.20
2017-12-22T03:13:29.017Z,95.20
2017-12-22T03:16:06.462Z,95.10
2017-12-22T03:18:40.930Z,95.20
2017-12-22T03:21:19.670Z,95.10
2017-12-22T03:24:04.200Z,95.10
2017-12-22T03:26:49.326Z,95.10
2017-12-22T03:29:27.230Z,95.10
2017-12-22T03:32:11.216Z,95.10
2017-12-22T03:37:41.326Z,95.00
2017-12-22T03:40:20.196Z,95.00
2017-12-22T03:48:35.453Z,95.10
2017-12-22T03:54:14.370Z,95.20
2017-12-22T03:56:52.203Z,95.40
2017-12-22T03:59:29.307Z,95.60
2017-12-22T04:02:07.199Z,95.60
2017-12-22T04:04:44.850Z,95.60
2017-12-22T04:12:51.256Z,95.60
2017-12-22T04:15:36.258Z,95.70
2017-12-22T04:21:04.708Z,95.60
2017-12-22T04:26:40.936Z,95.50
2017-12-22T04:29:15.837Z,95.50
2017-12-22T04:37:17.736Z,95.70
2017-12-22T04:42:42.079Z,95.60
2017-12-22T04:48:51.054Z,95.80
2017-12-22T04:51:29.466Z,95.80
2017-12-22T04:54:13.070Z,95.70
2017-12-22T04:56:47.929Z,95.50
2017-12-22T04:59:25.500Z,95.70
2017-12-22T05:02:03.504Z,95.70
2017-12-22T05:04:40.216Z,95.60
2017-12-22T05:07:16.134Z,95.70
2017-12-22T05:09:56.994Z,95.60
2017-12-22T05:12:44.739Z,95.50
2017-12-22T05:15:22.529Z,95.50
2017-12-22T05:21:08.185Z,95.20
2017-12-22T05:23:45.969Z,95.20
2017-12-22T05:26:33.808Z,95.20
2017-12-22T05:31:50.945Z,94.80
2017-12-22T05:52:27.024Z,95.20
2017-12-22T05:55:18.095Z,95.10
2017-12-22T05:58:03.959Z,95.10
2017-12-22T06:03:28.853Z,94.90
2017-12-22T06:14:57.718Z,94.40
2017-12-22T06:17:37.819Z,94.40
2017-12-22T06:20:15.652Z,94.60
2017-12-22T06:34:37.920Z,94.10
2017-12-22T06:37:22.757Z,94.30
2017-12-22T06:40:04.034Z,94.50
2017-12-22T06:42:44.400Z,94.60
2017-12-22T06:45:30.666Z,94.50
2017-12-22T06:50:53.695Z,94.40
2017-12-22T07:05:26.761Z,94.80
2017-12-22T07:17:22.329Z,95.10
2017-12-22T07:22:45.136Z,95.00
2017-12-22T07:25:24.862Z,94.90
2017-12-22T07:27:59.713Z,94.90
2017-12-22T07:47:51.974Z,95.40
2017-12-22T07:50:30.770Z,95.40
2017-12-22T07:56:20.678Z,95.40
2017-12-22T07:58:55.490Z,95.40
2017-12-22T08:01:34.473Z,95.50
2017-12-22T08:04:12.086Z,95.50
2017-12-22T08:06:55.273Z,95.50
2017-12-22T08:09:43.022Z,95.40
2017-12-22T08:12:23.342Z,95.50
2017-12-22T08:15:03.185Z,95.30
2017-12-22T08:17:43.946Z,95.30
2017-12-22T08:26:47.490Z,95.40
2017-12-22T08:29:38.924Z,95.50
2017-12-22T08:35:07.416Z,95.10
2017-12-22T08:43:48.612Z,95.20
2017-12-22T09:32:04.635Z,93.60
2017-12-22T09:34:51.133Z,93.40
2017-12-22T09:37:28.410Z,93.40
2017-12-22T09:55:04.994Z,93.10
2017-12-22T10:03:36.281Z,92.60
2017-12-22T10:06:32.833Z,93.20
2017-12-22T10:15:13.789Z,93.40
2017-12-22T10:17:47.652Z,93.20
2017-12-22T10:20:25.393Z,93.10
2017-12-22T10:23:01.009Z,93.20
2017-12-22T10:28:17.296Z,93.10
2017-12-22T10:34:04.754Z,92.30
2017-12-22T10:48:37.432Z,92.10
2017-12-22T10:51:16.457Z,91.80
2017-12-22T11:02:49.017Z,92.50
2017-12-22T11:08:26.700Z,92.70
2017-12-22T11:16:54.981Z,93.00
2017-12-22T11:19:34.406Z,93.20
2017-12-22T11:25:03.999Z,92.50
2017-12-22T11:33:16.185Z,90.90
2017-12-22T11:50:06.463Z,91.50
2017-12-22T12:13:00.580Z,91.90
2017-12-22T12:21:33.267Z,91.40
2017-12-22T12:39:22.454Z,90.70
2017-12-22T12:45:11.431Z,90.80
2017-12-22T12:53:43.065Z,90.30
2017-12-22T12:59:03.719Z,90.50
2017-12-22T13:04:37.160Z,90.40
2017-12-22T13:07:24.675Z,90.00
2017-12-22T13:12:48.641Z,90.30
2017-12-22T13:15:22.562Z,90.10
2017-12-22T13:17:57.757Z,90.10
2017-12-22T13:20:34.978Z,90.40
2017-12-22T13:23:11.674Z,90.30
2017-12-22T13:25:46.610Z,90.40
2017-12-22T13:28:22.765Z,90.70
2017-12-22T13:30:58.497Z,90.60
2017-12-22T13:33:34.084Z,90.50
2017-12-22T13:36:11.439Z,90.80
2017-12-22T13:38:47.762Z,90.80
2017-12-22T13:41:23.353Z,90.90
2017-12-22T13:43:57.142Z,91.10
2017-12-22T13:46:32.685Z,91.30
2017-12-22T13:49:19.137Z,90.60
2017-12-22T13:51:55.340Z,90.90
2017-12-22T13:54:33.175Z,91.30
2017-12-22T13:57:07.819Z,91.40
2017-12-22T13:59:51.676Z,91.20
2017-12-22T14:02:33.880Z,91.20
2017-12-22T14:05:17.508Z,91.10
2017-12-22T14:07:54.462Z,90.50
2017-12-22T14:13:26.548Z,90.20
2017-12-22T14:16:04.056Z,90.20
2017-12-22T14:27:21.364Z,90.50
2017-12-22T14:29:56.378Z,90.50
2017-12-22T14:32:32.711Z,90.60
2017-12-22T14:35:10.736Z,90.70
2017-12-22T14:37:47.572Z,90.90
2017-12-22T14:40:24.243Z,91.10
2017-12-22T14:43:02.072Z,91.20
2017-12-22T14:48:48.839Z,91.70
2017-12-22T14:51:28.121Z,91.90
2017-12-22T15:05:47.922Z,91.90
2017-12-22T15:08:22.532Z,91.90
2017-12-22T15:10:59.393Z,92.10
2017-12-22T15:16:13.351Z,92.10
2017-12-22T15:18:47.036Z,92.00
2017-12-22T15:21:23.310Z,92.20
2017-12-22T15:24:04.481Z,92.20
2017-12-22T15:26:41.916Z,92.40
2017-12-22T15:29:20.224Z,92.30
2017-12-22T15:32:02.351Z,92.30
2017-12-22T15:34:41.091Z,92.40
2017-12-22T15:37:19.508Z,92.20
2017-12-22T15:39:57.317Z,92.20
2017-12-22T15:42:34.470Z,92.00
2017-12-22T15:45:10.043Z,92.00
2017-12-22T15:47:44.680Z,91.70
2017-12-22T15:50:18.972Z,91.70
2017-12-22T15:52:54.553Z,91.70
2017-12-22T15:55:32.383Z,91.40
2017-12-22T15:58:17.646Z,91.40
2017-12-22T16:00:56.237Z,91.10
2017-12-22T16:03:35.616Z,91.10
2017-12-22T16:06:18.317Z,91.30
2017-12-22T16:08:56.084Z,91.00
2017-12-22T16:11:29.894Z,91.10
2017-12-22T16:14:03.692Z,91.20
2017-12-22T16:16:38.214Z,91.00
2017-12-22T16:19:13.190Z,91.00
2017-12-22T16:21:46.805Z,91.00
2017-12-22T16:24:21.021Z,90.90
2017-12-22T16:26:58.792Z,90.90
2017-12-22T16:29:35.687Z,90.80
2017-12-22T16:32:09.513Z,90.90
2017-12-22T16:34:43.448Z,90.80
2017-12-22T16:37:21.203Z,90.70
2017-12-22T16:39:59.782Z,90.70
2017-12-22T16:42:36.518Z,90.70
2017-12-22T16:45:17.828Z,90.50
2017-12-22T16:47:53.168Z,90.40
2017-12-22T16:50:27.460Z,90.40
2017-12-22T16:53:05.293Z,90.10
2017-12-22T16:58:39.222Z,90.00
2017-12-22T17:01:13.768Z,90.00
2017-12-22T17:03:50.958Z,90.30
2017-12-22T17:06:26.637Z,90.00
2017-12-22T17:09:06.019Z,90.00
2017-12-22T17:11:41.994Z,89.70
2017-12-22T17:14:17.171Z,90.00
2017-12-22T17:16:56.341Z,90.00
2017-12-22T17:19:31.730Z,89.80
2017-12-22T17:22:08.387Z,89.90
2017-12-22T17:24:43.986Z,90.00
2017-12-22T17:27:19.433Z,90.00
2017-12-22T17:29:55.521Z,90.00
2017-12-22T17:32:29.754Z,90.00
2017-12-22T17:35:06.287Z,90.00
2017-12-22T17:37:41.360Z,90.00
2017-12-22T17:40:18.551Z,90.00
2017-12-22T17:42:55.569Z,90.00
2017-12-22T17:45:35.073Z,90.00
2017-12-22T17:48:10.414Z,90.00
2017-12-22T17:50:45.052Z,90.00
2017-12-22T17:53:19.898Z,89.30
2017-12-22T17:55:56.172Z,89.30
2017-12-22T17:58:35.077Z,89.50
2017-12-22T18:01:27.045Z,89.40
2017-12-22T18:04:07.098Z,89.30
2017-12-22T18:06:47.162Z,89.30
2017-12-22T18:09:26.650Z,89.30
2017-12-22T18:12:09.263Z,89.60
2017-12-22T18:14:51.063Z,89.00
2017-12-22T19:07:49.300Z,88.40
2017-12-22T19:15:54.822Z,88.10
2017-12-22T19:18:28.870Z,88.10
2017-12-22T19:21:06.195Z,88.20
2017-12-22T19:23:39.841Z,88.20
2017-12-22T19:28:54.866Z,88.70
2017-12-22T19:31:30.713Z,88.40
2017-12-22T19:34:06.033Z,88.20
2017-12-22T19:36:43.485Z,88.40
2017-12-22T19:39:18.765Z,88.30
2017-12-22T19:41:54.448Z,88.00
2017-12-22T19:44:28.437Z,88.20
2017-12-22T19:47:03.189Z,88.10
2017-12-22T19:49:39.926Z,88.50
2017-12-22T19:52:14.351Z,88.40
2017-12-22T19:54:51.477Z,88.40
2017-12-22T20:02:43.093Z,88.70
2017-12-22T20:05:19.086Z,88.60
2017-12-22T20:07:54.391Z,88.50
2017-12-22T20:10:29.980Z,88.20
2017-12-22T20:15:42.692Z,88.70
2017-12-22T20:18:16.694Z,88.40
2017-12-22T20:20:52.053Z,89.20
2017-12-22T20:23:26.354Z,89.20
2017-12-22T20:25:59.912Z,88.90
2017-12-22T20:28:33.766Z,89.10
2017-12-22T20:31:08.995Z,88.70
2017-12-22T20:33:42.763Z,88.70
2017-12-22T20:36:16.534Z,89.70
2017-12-22T20:38:50.957Z,89.30
2017-12-22T20:41:24.823Z,89.60
2017-12-22T20:44:00.189Z,89.60
2017-12-22T20:46:35.820Z,89.70
2017-12-22T20:49:09.573Z,89.60
2017-12-22T20:51:45.098Z,89.60
2017-12-22T20:54:18.931Z,89.60
2017-12-22T20:56:54.315Z,89.60
2017-12-22T20:59:28.064Z,89.60
2017-12-22T21:02:01.966Z,89.60
2017-12-22T21:04:36.190Z,89.60
2017-12-22T21:07:09.987Z,89.20
2017-12-22T21:09:43.765Z,88.40
2017-12-22T21:12:17.632Z,88.40
2017-12-22T21:14:51.470Z,88.70
2017-12-22T21:17:25.205Z,88.60
2017-12-22T21:19:58.921Z,88.70
2017-12-22T21:22:32.653Z,88.20
2017-12-22T21:25:06.390Z,88.00
2017-12-22T21:27:41.017Z,87.40
2017-12-22T21:30:15.542Z,87.40
2017-12-22T21:35:32.299Z,87.30
2017-12-22T21:38:08.627Z,87.10
2017-12-22T21:40:47.728Z,87.30
2017-12-22T21:48:59.437Z,87.90
2017-12-22T21:51:34.002Z,87.80
2017-12-22T21:56:52.658Z,87.70
2017-12-22T22:07:39.628Z,88.70
2017-12-22T22:10:21.184Z,89.50
2017-12-22T22:13:00.288Z,89.50
2017-12-22T22:18:26.634Z,89.50
2017-12-22T22:21:02.791Z,90.00
2017-12-22T22:23:38.256Z,90.00
2017-12-22T22:26:14.296Z,90.20
2017-12-22T22:28:48.996Z,90.20
2017-12-22T22:31:22.673Z,90.40
2017-12-22T22:33:56.501Z,90.50
2017-12-22T22:36:30.525Z,90.50
2017-12-22T22:39:07.988Z,90.70
2017-12-22T22:41:42.443Z,90.90
2017-12-22T22:44:20.445Z,91.00
2017-12-22T22:46:54.437Z,91.10
2017-12-22T22:49:28.340Z,91.30
2017-12-22T22:52:03.072Z,91.40
2017-12-22T22:54:37.371Z,91.40
2017-12-22T22:57:16.094Z,91.60
2017-12-22T22:59:52.018Z,91.40
2017-12-22T23:02:27.843Z,91.40
2017-12-22T23:05:03.571Z,91.60
2017-12-22T23:07:40.050Z,91.60
2017-12-22T23:10:14.679Z,91.80
2017-12-22T23:12:49.312Z,91.80
2017-12-22T23:15:23.487Z,91.80
2017-12-22T23:17:57.559Z,91.90
2017-12-22T23:20:31.939Z,91.90
2017-12-22T23:23:06.895Z,91.90
2017-12-22T23:25:41.941Z,92.20
2017-12-22T23:28:17.924Z,92.20
2017-12-22T23:30:51.744Z,92.10
2017-12-22T23:33:26.533Z,92.10
2017-12-22T23:36:01.800Z,92.00
2017-12-22T23:38:38.420Z,92.00
2017-12-22T23:41:15.048Z,92.10
2017-12-22T23:43:53.200Z,92.00
2017-12-22T23:46:28.075Z,92.00
2017-12-22T23:49:06.033Z,91.90
2017-12-22T23:51:41.325Z,92.20
2017-12-22T23:54:15.836Z,92.10
2017-12-22T23:56:51.752Z,92.10
2017-12-22T23:59:25.578Z,92.10
